Terminal Aerodrome Forecast
Issued by NWS

Home | Current Version | Previous Version | Text Only | Print | Product List | Glossary On
Versions: 1 2 3 4 5 6 7 8 9 10 11 12 13 14 15 16 17 18 19 20 21 22 23 24 25 26 27 28
000
FTUS45 KGJT 041724
TAFDRO
TAF
KDRO 041724Z 0418/0518 15003KT P6SM SCT080 BKN100
     FM041900 23008KT P6SM VCTS BKN100CB
     FM050100 13007KT P6SM VCSH SCT080 BKN100
     FM050500 02007KT P6SM VCSH OVC060
     FM050800 33006KT P6SM -SHRA BKN030=

USA.gov is the U.S. government's official web portal to all federal, state and local government web resources and services.